Time;durP1;ratioP1;P1;durP2;ratioP2;P2;SDS_P1;SDS_P2;PMS_P1;PMS_P2;Temp;Humidity;BMP_temperature;BMP_pressure;BME280_temperature;BME280_humidity;BME280_pressure;Samples;Min_cycle;Max_cycle;Signal;HPM_P1;HPM_P2
2023/06/29 00:00:16;;;;;;;19.10;8.07;;;20.60;31.90;;;;;;5054042;28;20389;-73
2023/06/29 00:02:42;;;;;;;17.07;7.63;;;20.60;31.80;;;;;;5053608;28;20779;-75
2023/06/29 00:05:09;;;;;;;12.80;6.90;;;20.60;32.10;;;;;;5054001;28;20412;-73
2023/06/29 00:07:35;;;;;;;13.32;7.35;;;20.60;32.00;;;;;;5054054;28;20401;-74
2023/06/29 00:10:00;;;;;;;17.98;7.40;;;20.50;32.10;;;;;;5036221;28;20802;-73
2023/06/29 00:12:27;;;;;;;13.70;7.57;;;20.50;32.50;;;;;;5054183;28;20376;-74
2023/06/29 00:14:53;;;;;;;15.95;8.13;;;20.40;32.40;;;;;;5055251;28;20389;-75
2023/06/29 00:17:20;;;;;;;14.88;7.90;;;20.50;32.30;;;;;;5058438;28;20393;-74
2023/06/29 00:19:48;;;;;;;16.63;8.20;;;20.50;32.50;;;;;;5073926;28;20484;-74
2023/06/29 00:22:15;;;;;;;15.30;7.55;;;20.50;32.30;;;;;;5068985;28;20393;-74
2023/06/29 00:24:43;;;;;;;14.88;8.20;;;20.50;32.50;;;;;;5054786;28;20416;-74
2023/06/29 00:27:13;;;;;;;16.80;8.50;;;20.50;32.70;;;;;;5053492;28;20402;-74
2023/06/29 00:29:42;;;;;;;16.60;7.80;;;20.40;32.50;;;;;;5053531;28;20734;-74
2023/06/29 00:32:12;;;;;;;16.00;7.88;;;20.40;32.40;;;;;;5052873;28;20381;-74
2023/06/29 00:34:38;;;;;;;17.20;8.70;;;20.50;32.50;;;;;;5060692;28;20457;-74
2023/06/29 00:37:04;;;;;;;14.70;8.10;;;20.40;32.30;;;;;;5074986;28;20381;-72
2023/06/29 00:39:30;;;;;;;17.23;8.33;;;20.50;32.20;;;;;;5073527;28;20429;-74
2023/06/29 00:41:56;;;;;;;15.63;8.27;;;20.50;32.20;;;;;;5071338;28;20482;-74
2023/06/29 00:44:22;;;;;;;16.10;7.90;;;20.40;32.30;;;;;;5071863;28;20425;-73
2023/06/29 00:46:49;;;;;;;13.20;8.37;;;20.40;32.40;;;;;;5055175;28;20491;-73
2023/06/29 00:49:14;;;;;;;18.85;8.27;;;20.30;32.90;;;;;;5053600;28;20897;-74
2023/06/29 00:51:41;;;;;;;14.15;8.20;;;20.30;33.20;;;;;;5052771;28;20421;-74
2023/06/29 00:54:10;;;;;;;17.95;7.90;;;20.30;33.20;;;;;;5053278;28;20378;-74
2023/06/29 00:56:36;;;;;;;17.55;8.20;;;20.30;33.20;;;;;;5059538;28;20465;-74
2023/06/29 00:59:02;;;;;;;20.10;8.38;;;20.30;32.90;;;;;;5056919;28;20851;-73
2023/06/29 01:01:28;;;;;;;17.45;8.20;;;20.30;32.70;;;;;;5056562;28;20746;-74
2023/06/29 01:03:58;;;;;;;14.30;7.90;;;20.30;33.00;;;;;;5058944;28;20389;-74
2023/06/29 01:06:30;;;;;;;14.05;7.65;;;20.30;32.70;;;;;;5053200;28;20905;-74
2023/06/29 01:09:01;;;;;;;14.50;8.02;;;20.40;32.30;;;;;;5053662;28;20381;-74
2023/06/29 01:11:26;;;;;;;16.10;7.78;;;20.40;31.90;;;;;;5037604;28;20388;-74
2023/06/29 01:13:53;;;;;;;15.77;8.83;;;20.50;32.10;;;;;;5052716;28;20464;-73
2023/06/29 01:16:20;;;;;;;18.95;8.98;;;20.40;32.20;;;;;;5052873;28;20412;-74
2023/06/29 01:18:47;;;;;;;13.57;8.25;;;20.30;32.40;;;;;;5052396;28;20968;-73
2023/06/29 01:21:14;;;;;;;16.80;8.60;;;20.30;32.30;;;;;;5052414;28;20579;-74
2023/06/29 01:23:42;;;;;;;16.85;8.23;;;20.40;32.30;;;;;;5052485;28;20837;-74
2023/06/29 01:26:09;;;;;;;15.18;7.35;;;20.30;32.30;;;;;;5051960;28;20413;-73
2023/06/29 01:28:38;;;;;;;19.15;8.20;;;20.30;32.50;;;;;;5052112;28;20519;-74
2023/06/29 01:31:05;;;;;;;16.95;8.30;;;20.40;32.40;;;;;;5052180;28;20876;-77
2023/06/29 01:33:31;;;;;;;12.00;7.65;;;20.30;32.50;;;;;;5052998;28;20381;-73
2023/06/29 01:36:04;;;;;;;17.40;8.20;;;20.20;32.80;;;;;;5052506;28;20424;-73
2023/06/29 01:38:39;;;;;;;19.90;8.77;;;20.10;33.00;;;;;;5052358;28;20439;-73
2023/06/29 01:41:06;;;;;;;17.52;8.50;;;20.20;33.20;;;;;;5052205;28;20951;-73
2023/06/29 01:43:33;;;;;;;18.05;9.25;;;20.10;33.40;;;;;;5052406;28;20762;-73
2023/06/29 01:45:59;;;;;;;21.23;9.10;;;20.00;33.50;;;;;;5052856;28;20409;-73
2023/06/29 01:48:26;;;;;;;12.25;8.50;;;20.00;33.90;;;;;;5052320;28;20465;-74
2023/06/29 01:50:51;;;;;;;18.10;8.50;;;19.90;34.30;;;;;;5051769;28;20386;-73
2023/06/29 01:53:17;;;;;;;16.10;8.23;;;20.00;33.90;;;;;;5051498;28;20393;-74
2023/06/29 01:55:43;;;;;;;15.18;8.70;;;20.00;34.10;;;;;;5051931;28;20392;-75
2023/06/29 01:58:10;;;;;;;19.73;9.27;;;20.00;34.10;;;;;;5051521;28;20396;-74
2023/06/29 02:00:36;;;;;;;18.30;8.63;;;19.90;34.00;;;;;;5051663;28;20382;-73
2023/06/29 02:03:01;;;;;;;17.33;9.10;;;19.90;34.10;;;;;;5051327;28;20754;-74
2023/06/29 02:05:27;;;;;;;15.83;8.73;;;19.90;34.20;;;;;;5051681;28;20385;-74
2023/06/29 02:07:53;;;;;;;14.80;8.53;;;19.90;34.30;;;;;;5051686;28;20869;-73
2023/06/29 02:10:18;;;;;;;17.10;8.63;;;19.80;34.40;;;;;;5051673;28;20423;-74
2023/06/29 02:12:44;;;;;;;17.30;9.20;;;19.80;34.70;;;;;;5051170;28;20742;-74
2023/06/29 02:15:10;;;;;;;16.20;9.10;;;19.90;34.50;;;;;;5051371;28;20381;-73
2023/06/29 02:17:35;;;;;;;23.27;9.30;;;19.90;34.80;;;;;;5051196;28;20395;-72
2023/06/29 02:20:01;;;;;;;15.13;8.80;;;19.80;35.70;;;;;;5050444;28;20494;-73
2023/06/29 02:22:26;;;;;;;18.40;8.67;;;19.70;35.30;;;;;;5050568;28;20752;-74
2023/06/29 02:24:52;;;;;;;16.30;9.60;;;19.80;35.30;;;;;;5051326;28;20392;-73
2023/06/29 02:27:20;;;;;;;17.05;9.00;;;19.70;35.40;;;;;;5050346;28;20512;-73
2023/06/29 02:29:46;;;;;;;15.90;8.90;;;19.70;35.80;;;;;;5051058;28;20454;-73
2023/06/29 02:32:11;;;;;;;16.50;9.80;;;19.70;35.60;;;;;;5051006;28;20431;-73
2023/06/29 02:34:37;;;;;;;16.17;8.55;;;19.70;35.60;;;;;;5051138;28;20415;-73
2023/06/29 02:37:02;;;;;;;18.13;9.10;;;19.70;35.50;;;;;;5051001;28;20408;-72
2023/06/29 02:39:28;;;;;;;21.33;9.85;;;19.70;36.30;;;;;;5051071;28;20386;-72
2023/06/29 02:41:53;;;;;;;18.27;9.82;;;19.60;35.80;;;;;;5050745;28;20390;-75
2023/06/29 02:44:20;;;;;;;20.13;9.57;;;19.60;35.80;;;;;;5050850;28;20435;-73
2023/06/29 02:46:46;;;;;;;20.10;9.43;;;19.60;35.80;;;;;;5050938;28;20405;-73
2023/06/29 02:49:12;;;;;;;20.13;8.60;;;19.60;36.20;;;;;;5051093;28;20387;-73
2023/06/29 02:51:37;;;;;;;16.40;9.27;;;19.50;36.70;;;;;;5050816;28;20384;-73
2023/06/29 02:54:03;;;;;;;18.93;9.23;;;19.50;36.70;;;;;;5051044;28;20378;-75
2023/06/29 02:56:28;;;;;;;24.92;9.43;;;19.50;37.00;;;;;;5050919;28;20389;-74
2023/06/29 02:58:54;;;;;;;12.60;9.23;;;19.40;36.90;;;;;;5051064;28;20388;-74
2023/06/29 03:01:19;;;;;;;18.53;9.40;;;19.40;37.00;;;;;;5050935;28;20392;-74
2023/06/29 03:03:45;;;;;;;18.38;9.43;;;19.40;36.90;;;;;;5050930;28;20381;-74
2023/06/29 03:06:11;;;;;;;16.87;9.40;;;19.40;36.90;;;;;;5051033;28;20403;-73
2023/06/29 03:08:36;;;;;;;24.10;9.90;;;19.50;36.90;;;;;;5051392;28;20892;-73
2023/06/29 03:11:02;;;;;;;20.07;9.10;;;19.60;36.50;;;;;;5051127;28;20373;-73
2023/06/29 03:13:27;;;;;;;21.17;10.88;;;19.60;36.40;;;;;;5032810;28;20459;-74
2023/06/29 03:15:56;;;;;;;19.03;8.40;;;19.70;36.30;;;;;;5051243;28;20385;-74
2023/06/29 03:18:22;;;;;;;21.05;9.80;;;19.60;36.20;;;;;;5051399;28;20878;-74
2023/06/29 03:20:47;;;;;;;23.00;9.70;;;19.70;36.20;;;;;;5033132;28;20393;-74
2023/06/29 03:23:13;;;;;;;14.13;9.03;;;19.60;36.10;;;;;;5052913;28;20782;-74
2023/06/29 03:25:38;;;;;;;22.80;9.40;;;19.70;36.10;;;;;;5057248;28;20409;-73
2023/06/29 03:28:04;;;;;;;16.30;8.88;;;19.70;36.00;;;;;;5038820;28;20449;-74
2023/06/29 03:30:30;;;;;;;19.20;8.93;;;19.60;35.80;;;;;;5066020;28;20381;-73
2023/06/29 03:32:58;;;;;;;18.38;9.48;;;19.60;35.80;;;;;;5051312;28;20396;-73
2023/06/29 03:35:23;;;;;;;16.20;8.70;;;19.60;36.20;;;;;;5066574;28;20381;-74
2023/06/29 03:37:49;;;;;;;15.32;9.18;;;19.60;36.20;;;;;;5067305;28;20406;-74
2023/06/29 03:40:16;;;;;;;19.98;9.15;;;19.50;36.30;;;;;;5053740;28;20397;-75
2023/06/29 03:42:42;;;;;;;17.13;9.00;;;19.50;36.30;;;;;;5053264;28;20408;-75
2023/06/29 03:45:07;;;;;;;12.90;8.67;;;19.60;36.10;;;;;;5045057;28;20397;-75
2023/06/29 03:47:33;;;;;;;15.35;9.20;;;19.60;36.00;;;;;;5058257;28;20409;-74
2023/06/29 03:49:59;;;;;;;23.45;9.60;;;19.60;36.00;;;;;;5039299;28;20447;-73
2023/06/29 03:52:24;;;;;;;18.03;9.10;;;19.70;36.20;;;;;;5056482;28;20407;-73
2023/06/29 03:54:50;;;;;;;14.63;9.80;;;19.70;36.10;;;;;;5057014;28;20397;-75
2023/06/29 03:57:16;;;;;;;18.85;9.05;;;19.70;36.10;;;;;;5056495;28;20384;-73
2023/06/29 03:59:41;;;;;;;15.02;8.48;;;19.70;36.10;;;;;;5041038;28;20404;-74
2023/06/29 04:02:07;;;;;;;15.47;9.10;;;19.70;36.00;;;;;;5039352;28;20630;-75
2023/06/29 04:04:32;;;;;;;23.67;9.50;;;19.70;36.00;;;;;;5038764;28;20393;-73
2023/06/29 04:06:58;;;;;;;13.60;9.00;;;19.80;35.90;;;;;;5038960;28;20739;-74
2023/06/29 04:09:23;;;;;;;21.70;9.57;;;19.80;35.50;;;;;;5039538;28;20393;-73
2023/06/29 04:11:49;;;;;;;23.13;9.82;;;20.10;35.00;;;;;;5060525;28;20388;-74
2023/06/29 04:14:15;;;;;;;17.60;9.30;;;20.10;35.00;;;;;;5057600;28;20386;-73
2023/06/29 04:16:40;;;;;;;17.40;9.57;;;20.10;34.90;;;;;;5057659;28;20397;-72
2023/06/29 04:19:06;;;;;;;18.33;8.85;;;20.10;35.00;;;;;;5058356;28;20381;-73
2023/06/29 04:21:31;;;;;;;17.23;9.40;;;20.00;35.00;;;;;;5058862;28;21020;-74
2023/06/29 04:23:57;;;;;;;22.80;9.30;;;20.00;34.90;;;;;;5061174;28;20405;-74
2023/06/29 04:26:23;;;;;;;17.23;9.50;;;20.10;35.00;;;;;;5059628;28;20432;-75
2023/06/29 04:28:48;;;;;;;18.50;9.00;;;20.00;35.00;;;;;;5063808;28;20433;-74
2023/06/29 04:31:14;;;;;;;16.65;8.88;;;20.10;34.90;;;;;;5063235;28;20882;-75
2023/06/29 04:33:39;;;;;;;16.05;8.48;;;20.10;34.90;;;;;;5061467;28;20804;-74
2023/06/29 04:36:05;;;;;;;17.47;9.60;;;20.10;35.00;;;;;;5057580;28;20401;-74
2023/06/29 04:38:31;;;;;;;17.52;9.38;;;20.20;34.90;;;;;;5038594;28;20405;-75
2023/06/29 04:41:03;;;;;;;14.45;8.35;;;20.20;34.40;;;;;;5055847;28;20393;-73
2023/06/29 04:43:32;;;;;;;19.80;9.95;;;20.20;34.70;;;;;;5055979;28;20385;-73
2023/06/29 04:46:01;;;;;;;17.95;10.05;;;20.20;34.80;;;;;;5039389;28;20405;-75
2023/06/29 04:48:32;;;;;;;17.45;9.23;;;20.20;35.50;;;;;;5056524;28;20388;-74
2023/06/29 04:51:02;;;;;;;16.20;9.00;;;20.20;35.00;;;;;;5055886;28;20869;-74
2023/06/29 04:53:28;;;;;;;13.93;8.90;;;20.20;34.90;;;;;;5056567;28;20789;-74
2023/06/29 04:55:55;;;;;;;12.52;8.80;;;20.20;35.00;;;;;;5056623;28;20443;-73
2023/06/29 04:58:20;;;;;;;16.98;8.95;;;20.30;34.70;;;;;;5056371;28;20443;-73
2023/06/29 05:00:46;;;;;;;15.50;8.60;;;20.30;34.80;;;;;;5055758;28;20474;-74
2023/06/29 05:03:11;;;;;;;19.88;9.15;;;20.40;34.60;;;;;;5055648;28;20401;-73
2023/06/29 05:05:37;;;;;;;18.73;9.20;;;20.50;34.30;;;;;;5056460;28;20386;-73
2023/06/29 05:08:02;;;;;;;17.48;9.35;;;20.60;34.00;;;;;;5056132;28;20389;-76
2023/06/29 05:10:28;;;;;;;16.50;9.50;;;20.70;33.60;;;;;;5056917;28;20385;-73
2023/06/29 05:12:53;;;;;;;19.57;9.77;;;20.70;33.80;;;;;;5059770;28;20468;-73
2023/06/29 05:15:22;;;;;;;19.15;9.23;;;20.70;33.60;;;;;;5055901;28;20719;-73
2023/06/29 05:17:48;;;;;;;18.47;9.10;;;20.70;33.70;;;;;;5056129;28;20431;-75
2023/06/29 05:20:14;;;;;;;18.73;8.57;;;20.80;33.60;;;;;;5055752;28;20403;-74
2023/06/29 05:22:40;;;;;;;16.00;9.10;;;20.80;33.30;;;;;;5055460;28;20390;-74
2023/06/29 05:25:06;;;;;;;20.07;9.30;;;20.90;33.30;;;;;;5055950;28;20377;-74
2023/06/29 05:27:31;;;;;;;26.08;9.27;;;20.90;33.30;;;;;;5057941;28;20436;-73
2023/06/29 05:29:57;;;;;;;22.90;10.30;;;20.90;33.20;;;;;;5056679;28;20883;-73
2023/06/29 05:32:22;;;;;;;14.03;9.60;;;20.90;32.70;;;;;;5056525;28;20412;-73
2023/06/29 05:34:48;;;;;;;14.43;8.98;;;21.00;32.60;;;;;;5057170;28;20389;-75
2023/06/29 05:37:13;;;;;;;15.90;9.80;;;21.10;32.40;;;;;;5056216;28;20381;-75
2023/06/29 05:39:39;;;;;;;18.17;8.52;;;21.20;32.00;;;;;;5057276;28;20442;-74
2023/06/29 05:42:05;;;;;;;17.53;9.80;;;21.30;32.00;;;;;;5059239;28;20468;-74
2023/06/29 05:44:30;;;;;;;14.15;9.98;;;21.30;31.70;;;;;;5059067;28;20392;-75
2023/06/29 05:46:56;;;;;;;13.50;9.10;;;21.40;31.30;;;;;;5059146;28;20417;-74
2023/06/29 05:49:22;;;;;;;15.40;8.97;;;21.50;31.20;;;;;;5060086;28;20389;-75
2023/06/29 05:51:47;;;;;;;18.10;9.27;;;21.60;30.90;;;;;;5058660;28;20382;-75
2023/06/29 05:54:13;;;;;;;14.20;8.93;;;21.70;30.50;;;;;;5061336;28;20385;-73
2023/06/29 05:56:39;;;;;;;20.53;9.60;;;21.90;29.90;;;;;;5061516;28;20431;-74
2023/06/29 05:59:05;;;;;;;19.33;9.43;;;21.90;30.00;;;;;;5057584;28;20452;-74
2023/06/29 06:01:30;;;;;;;14.27;9.10;;;21.80;30.00;;;;;;5037352;28;20409;-73
2023/06/29 06:03:56;;;;;;;17.83;9.27;;;21.80;30.50;;;;;;5055615;28;20394;-74
2023/06/29 06:06:21;;;;;;;15.40;9.18;;;21.80;30.80;;;;;;5055327;28;20401;-76
2023/06/29 06:08:47;;;;;;;18.50;9.03;;;21.70;31.00;;;;;;5055172;28;20382;-73
2023/06/29 06:11:12;;;;;;;13.83;8.90;;;21.70;31.10;;;;;;5054465;28;20388;-74
2023/06/29 06:13:38;;;;;;;16.63;8.80;;;21.70;30.90;;;;;;5055677;28;20409;-74
2023/06/29 06:16:04;;;;;;;16.60;9.50;;;21.60;31.10;;;;;;5054887;28;20463;-74
2023/06/29 06:18:30;;;;;;;15.93;8.82;;;21.70;30.80;;;;;;5054704;28;20393;-74
2023/06/29 06:20:59;;;;;;;17.65;8.90;;;21.70;30.60;;;;;;5055393;28;20885;-74
2023/06/29 06:23:24;;;;;;;17.73;9.60;;;21.70;30.60;;;;;;5055095;28;20401;-75
2023/06/29 06:25:50;;;;;;;12.97;8.50;;;21.80;30.40;;;;;;5057351;28;20416;-73
2023/06/29 06:28:15;;;;;;;16.63;9.17;;;21.90;30.10;;;;;;5056611;28;20396;-74
2023/06/29 06:30:41;;;;;;;16.63;9.00;;;22.10;29.80;;;;;;5054594;28;20381;-73
2023/06/29 06:33:06;;;;;;;14.53;9.10;;;22.20;29.60;;;;;;5055451;28;20385;-73
2023/06/29 06:35:32;;;;;;;16.40;8.80;;;22.10;29.60;;;;;;5057451;28;20700;-73
2023/06/29 06:37:57;;;;;;;19.00;9.20;;;22.20;29.30;;;;;;5058867;28;20386;-73
2023/06/29 06:40:23;;;;;;;15.13;8.80;;;22.20;29.00;;;;;;5059114;28;20381;-75
2023/06/29 06:42:49;;;;;;;14.23;8.90;;;22.30;29.00;;;;;;5059071;28;20390;-75
2023/06/29 06:45:14;;;;;;;15.03;8.60;;;22.40;28.90;;;;;;5070437;28;20377;-73
2023/06/29 06:47:40;;;;;;;16.40;9.55;;;22.40;28.80;;;;;;5068400;28;20425;-73
2023/06/29 06:50:06;;;;;;;15.97;8.60;;;22.50;28.60;;;;;;5064266;28;20484;-75
2023/06/29 06:52:31;;;;;;;11.35;8.70;;;22.60;28.40;;;;;;5057335;28;20895;-75
2023/06/29 06:54:57;;;;;;;20.92;10.80;;;22.70;28.10;;;;;;5056615;28;20417;-75
2023/06/29 06:57:23;;;;;;;15.00;9.13;;;22.80;27.80;;;;;;5055150;28;20389;-74
2023/06/29 06:59:48;;;;;;;16.55;9.13;;;23.00;27.50;;;;;;5054584;28;20389;-73
2023/06/29 07:02:14;;;;;;;16.10;8.88;;;23.20;27.10;;;;;;5054989;28;20405;-73
2023/06/29 07:04:40;;;;;;;15.87;9.40;;;23.30;26.40;;;;;;5055784;28;20438;-76
2023/06/29 07:07:08;;;;;;;14.75;9.23;;;23.50;26.10;;;;;;5055197;28;20412;-74
2023/06/29 07:09:34;;;;;;;13.27;7.90;;;23.60;25.40;;;;;;5034482;28;20414;-76
2023/06/29 07:12:00;;;;;;;16.73;8.20;;;23.70;25.40;;;;;;5032575;28;20470;-75
2023/06/29 07:14:26;;;;;;;14.82;7.88;;;23.70;25.70;;;;;;5040484;28;20401;-76
2023/06/29 07:16:51;;;;;;;18.92;8.60;;;23.60;25.30;;;;;;5046384;28;20397;-77
2023/06/29 07:19:17;;;;;;;15.97;8.70;;;23.60;25.70;;;;;;5053030;28;20727;-76
2023/06/29 07:21:43;;;;;;;18.83;9.57;;;23.50;25.70;;;;;;5044932;28;20404;-77
2023/06/29 07:24:10;;;;;;;16.17;8.70;;;23.50;25.60;;;;;;5038771;28;20406;-76
2023/06/29 07:26:37;;;;;;;22.80;9.05;;;23.50;25.50;;;;;;5053450;28;20407;-76
2023/06/29 07:29:06;;;;;;;14.43;8.25;;;23.60;25.40;;;;;;5054893;28;20393;-77
2023/06/29 07:31:32;;;;;;;15.23;7.95;;;23.80;25.50;;;;;;5055839;28;20416;-76
2023/06/29 07:33:58;;;;;;;15.17;8.60;;;24.00;24.60;;;;;;5054951;28;20393;-76
2023/06/29 07:36:26;;;;;;;15.43;8.25;;;24.20;24.00;;;;;;5054929;28;20381;-77
2023/06/29 07:38:52;;;;;;;17.97;8.07;;;24.50;23.20;;;;;;5053890;28;20517;-75
2023/06/29 07:41:18;;;;;;;15.50;7.78;;;24.80;22.60;;;;;;5053555;28;20508;-77
2023/06/29 07:43:50;;;;;;;12.25;7.80;;;25.10;21.90;;;;;;5053988;28;20405;-75
2023/06/29 07:46:16;;;;;;;12.88;8.50;;;25.20;21.30;;;;;;5054569;28;20409;-77
2023/06/29 07:48:42;;;;;;;16.30;8.50;;;25.40;20.60;;;;;;5049624;28;20465;-76
2023/06/29 07:51:08;;;;;;;14.43;7.87;;;25.50;20.60;;;;;;5056221;28;20382;-75
2023/06/29 07:53:34;;;;;;;18.20;8.20;;;25.40;20.30;;;;;;5054838;28;20423;-75
2023/06/29 07:55:59;;;;;;;20.38;8.77;;;25.30;20.90;;;;;;5054783;28;20424;-76
2023/06/29 07:58:26;;;;;;;22.97;8.67;;;25.20;21.20;;;;;;5039642;28;20418;-77
2023/06/29 08:00:53;;;;;;;15.63;8.95;;;25.00;21.70;;;;;;5064939;28;20420;-76
2023/06/29 08:03:19;;;;;;;18.40;9.10;;;24.80;22.50;;;;;;5046540;28;20461;-76
2023/06/29 08:05:44;;;;;;;24.27;9.47;;;24.50;22.90;;;;;;5064183;28;20919;-77
2023/06/29 08:08:10;;;;;;;18.70;9.53;;;24.50;23.40;;;;;;5062964;28;20402;-77
2023/06/29 08:10:35;;;;;;;17.25;9.10;;;24.30;23.90;;;;;;5047002;28;20399;-77
2023/06/29 08:13:01;;;;;;;16.37;8.90;;;24.20;23.90;;;;;;5065336;28;20382;-78
2023/06/29 08:15:27;;;;;;;20.27;9.23;;;24.10;24.40;;;;;;5064982;28;20393;-76
2023/06/29 08:17:52;;;;;;;17.37;9.60;;;24.00;24.50;;;;;;5068261;28;20881;-75
2023/06/29 08:20:18;;;;;;;17.02;8.75;;;24.00;24.80;;;;;;5073391;28;20393;-73
2023/06/29 08:22:49;;;;;;;27.23;9.50;;;24.00;24.90;;;;;;5076580;28;20405;-78
2023/06/29 08:25:22;;;;;;;17.42;9.75;;;24.00;24.70;;;;;;5060459;28;20550;-79
2023/06/29 08:27:49;;;;;;;20.40;9.35;;;24.10;24.60;;;;;;5057910;28;20421;-76
2023/06/29 08:30:15;;;;;;;18.20;10.00;;;24.30;24.40;;;;;;5050165;28;20390;-75
2023/06/29 08:32:43;;;;;;;19.23;9.40;;;24.40;24.40;;;;;;5051174;28;20390;-75
2023/06/29 08:35:08;;;;;;;21.80;9.77;;;24.50;24.20;;;;;;5066162;28;20389;-73
2023/06/29 08:37:34;;;;;;;20.48;10.23;;;24.50;24.30;;;;;;5069060;28;20393;-76
2023/06/29 08:40:00;;;;;;;18.73;10.73;;;24.40;24.00;;;;;;5070932;28;20389;-76
2023/06/29 08:42:26;;;;;;;22.63;10.40;;;24.40;24.30;;;;;;5066745;28;20389;-75
2023/06/29 08:44:53;;;;;;;15.27;10.20;;;24.30;24.80;;;;;;5065906;28;20393;-75
2023/06/29 08:47:19;;;;;;;21.15;10.25;;;24.40;24.90;;;;;;5065499;28;20417;-73
2023/06/29 08:49:46;;;;;;;18.35;10.30;;;24.40;24.50;;;;;;5047830;28;20417;-75
2023/06/29 08:52:16;;;;;;;22.38;10.10;;;24.30;24.60;;;;;;5061446;28;20392;-76
2023/06/29 08:54:42;;;;;;;20.83;11.38;;;24.20;25.00;;;;;;5061648;28;20413;-76
2023/06/29 08:57:09;;;;;;;16.05;9.60;;;24.30;25.10;;;;;;5060890;28;20420;-76
2023/06/29 08:59:37;;;;;;;19.17;10.97;;;24.40;25.10;;;;;;5062540;28;20386;-76
2023/06/29 09:02:05;;;;;;;18.02;10.90;;;24.60;24.60;;;;;;5063291;28;20392;-76
2023/06/29 09:04:31;;;;;;;23.48;11.88;;;24.70;24.40;;;;;;5060933;28;20398;-77
2023/06/29 09:06:56;;;;;;;21.00;11.88;;;24.70;23.90;;;;;;5057090;28;20409;-77
2023/06/29 09:09:23;;;;;;;17.53;11.80;;;25.00;23.90;;;;;;5055301;28;20480;-75
2023/06/29 09:11:49;;;;;;;22.88;12.30;;;25.00;23.60;;;;;;5054798;28;20385;-75
2023/06/29 09:14:14;;;;;;;19.97;12.30;;;25.10;22.90;;;;;;5053960;28;20388;-74
2023/06/29 09:16:52;;;;;;;25.63;13.52;;;25.20;22.40;;;;;;5056232;28;20446;-78
2023/06/29 09:19:19;;;;;;;23.95;12.75;;;25.40;22.10;;;;;;5068340;28;20384;-79
2023/06/29 09:21:47;;;;;;;26.30;13.10;;;25.60;21.40;;;;;;5024352;28;20410;-77
2023/06/29 09:24:14;;;;;;;24.30;13.07;;;26.00;21.10;;;;;;5062730;22;20431;-69
2023/06/29 09:26:40;;;;;;;24.17;12.98;;;26.30;20.30;;;;;;5032896;28;20414;-72
2023/06/29 09:29:05;;;;;;;28.20;13.25;;;26.60;19.20;;;;;;5033377;28;20477;-71
2023/06/29 09:31:35;;;;;;;25.97;13.60;;;26.80;18.90;;;;;;5034053;28;20805;-71
2023/06/29 09:34:17;;;;;;;28.02;13.93;;;27.00;19.00;;;;;;5033524;28;20873;-70
2023/06/29 09:36:43;;;;;;;26.75;13.50;;;27.10;19.00;;;;;;5032731;28;20391;-72
2023/06/29 09:39:09;;;;;;;26.40;13.37;;;27.30;18.30;;;;;;5033984;28;20733;-71
2023/06/29 09:41:53;;;;;;;26.55;14.18;;;27.40;18.00;;;;;;5034154;28;20379;-70
2023/06/29 09:44:20;;;;;;;26.10;15.25;;;27.50;17.90;;;;;;5036869;28;20383;-73
2023/06/29 09:46:47;;;;;;;22.65;14.07;;;27.40;17.60;;;;;;5035145;28;20410;-72
2023/06/29 09:49:13;;;;;;;26.33;14.48;;;27.40;17.80;;;;;;5035097;28;20466;-73
2023/06/29 09:51:38;;;;;;;26.45;14.32;;;27.70;17.70;;;;;;5031903;28;20394;-72
2023/06/29 09:54:04;;;;;;;25.50;15.23;;;27.90;17.10;;;;;;5032946;28;20387;-71
2023/06/29 09:56:30;;;;;;;24.48;15.40;;;27.70;16.90;;;;;;5032615;28;20383;-70
2023/06/29 09:58:57;;;;;;;27.90;16.33;;;27.70;16.90;;;;;;5032535;28;20379;-71
2023/06/29 10:01:28;;;;;;;28.67;15.95;;;27.60;17.20;;;;;;5014625;28;20387;-72
2023/06/29 10:03:54;;;;;;;25.00;16.02;;;27.80;16.80;;;;;;5033156;28;20391;-71
2023/06/29 10:06:30;;;;;;;27.15;15.90;;;28.00;16.80;;;;;;5033066;28;20418;-69
2023/06/29 10:08:58;;;;;;;26.08;15.63;;;28.30;16.00;;;;;;5033054;28;20384;-71
2023/06/29 10:11:28;;;;;;;30.17;16.70;;;28.50;15.70;;;;;;5032495;28;20476;-71
2023/06/29 10:13:58;;;;;;;27.48;16.85;;;28.50;15.60;;;;;;5033088;28;20868;-70
2023/06/29 10:16:24;;;;;;;26.40;15.80;;;28.60;15.50;;;;;;5031798;28;20402;-72
2023/06/29 10:18:53;;;;;;;25.20;15.70;;;28.70;15.00;;;;;;5031643;28;20395;-71
2023/06/29 10:21:19;;;;;;;28.02;16.48;;;28.80;14.50;;;;;;5032951;28;21027;-71
2023/06/29 10:23:46;;;;;;;25.43;14.80;;;29.00;14.80;;;;;;5032615;28;20405;-70
2023/06/29 10:26:13;;;;;;;27.95;15.57;;;29.00;14.80;;;;;;5034341;28;20403;-72
2023/06/29 10:28:39;;;;;;;25.00;15.20;;;29.10;14.40;;;;;;5038026;28;20469;-72
2023/06/29 10:31:04;;;;;;;24.77;15.70;;;29.60;13.60;;;;;;5043243;28;20407;-72
2023/06/29 10:33:30;;;;;;;24.07;15.10;;;29.40;13.80;;;;;;5040226;28;20387;-73
2023/06/29 10:36:02;;;;;;;28.27;16.08;;;29.50;14.10;;;;;;5038904;28;20474;-72
2023/06/29 10:38:34;;;;;;;28.05;15.10;;;29.50;13.70;;;;;;5032797;28;20417;-71
2023/06/29 10:41:00;;;;;;;25.70;15.55;;;29.60;13.70;;;;;;5033931;28;20405;-72
2023/06/29 10:43:27;;;;;;;26.98;15.45;;;29.60;13.70;;;;;;5037233;28;20781;-71
2023/06/29 10:45:53;;;;;;;25.73;15.70;;;29.40;13.60;;;;;;5038354;28;20410;-73
2023/06/29 10:48:19;;;;;;;27.70;16.37;;;29.00;14.90;;;;;;5039969;28;20971;-71
2023/06/29 10:50:47;;;;;;;29.30;16.77;;;28.60;15.30;;;;;;5039686;28;20384;-72
2023/06/29 10:53:17;;;;;;;31.15;15.68;;;28.20;16.30;;;;;;5037408;28;20410;-72
2023/06/29 10:55:53;;;;;;;28.20;16.38;;;28.20;16.40;;;;;;5036756;28;20386;-72
2023/06/29 10:58:26;;;;;;;25.42;16.23;;;28.00;16.50;;;;;;5035624;28;20720;-73
2023/06/29 11:00:53;;;;;;;26.92;15.20;;;27.60;17.10;;;;;;5034249;28;20768;-73
2023/06/29 11:03:20;;;;;;;26.45;15.27;;;27.30;18.20;;;;;;5035840;28;20390;-71
2023/06/29 11:05:48;;;;;;;26.90;15.98;;;27.00;18.70;;;;;;5038473;28;20529;-73
2023/06/29 11:08:14;;;;;;;31.38;15.65;;;26.60;19.00;;;;;;5042345;28;20402;-72
2023/06/29 11:10:39;;;;;;;26.73;15.20;;;26.40;19.70;;;;;;5036096;28;20387;-71
2023/06/29 11:13:09;;;;;;;28.07;15.97;;;26.10;20.40;;;;;;5041791;28;20387;-72
2023/06/29 11:15:35;;;;;;;30.52;16.90;;;25.90;20.80;;;;;;5047203;28;20395;-73
2023/06/29 11:18:04;;;;;;;29.40;16.27;;;25.60;21.90;;;;;;5044820;28;20384;-73
2023/06/29 11:20:29;;;;;;;39.15;16.50;;;25.60;22.20;;;;;;5044516;28;20387;-72
2023/06/29 11:22:57;;;;;;;28.95;17.20;;;25.50;22.80;;;;;;5036405;28;20559;-71
2023/06/29 11:25:23;;;;;;;39.00;16.00;;;25.50;22.60;;;;;;5031807;28;20947;-73
2023/06/29 11:27:48;;;;;;;27.10;15.43;;;25.40;23.10;;;;;;5031724;28;20407;-73
2023/06/29 11:30:14;;;;;;;29.20;16.37;;;25.50;22.80;;;;;;5031351;28;20501;-71
2023/06/29 11:32:41;;;;;;;34.08;17.67;;;25.50;22.60;;;;;;5030983;28;20442;-71
2023/06/29 11:35:12;;;;;;;34.50;18.75;;;25.60;22.80;;;;;;5031101;28;20383;-71
2023/06/29 11:37:40;;;;;;;35.97;19.48;;;25.60;22.30;;;;;;5031321;28;20444;-72
2023/06/29 11:40:20;;;;;;;35.47;19.33;;;25.40;22.40;;;;;;5030713;28;20379;-71
2023/06/29 11:42:48;;;;;;;28.90;18.57;;;25.40;22.90;;;;;;5030768;28;20803;-71
2023/06/29 11:45:14;;;;;;;35.85;19.08;;;25.40;23.30;;;;;;5031017;28;20383;-71
2023/06/29 11:47:39;;;;;;;29.17;18.10;;;25.40;23.60;;;;;;5031505;28;20398;-71
2023/06/29 11:50:07;;;;;;;32.03;19.30;;;25.30;22.70;;;;;;5030600;28;20386;-71
2023/06/29 11:52:34;;;;;;;35.05;19.00;;;25.40;22.80;;;;;;5031140;28;20839;-72
2023/06/29 11:55:01;;;;;;;35.88;19.35;;;25.60;22.30;;;;;;5034676;28;20390;-71
2023/06/29 11:57:31;;;;;;;37.47;19.80;;;25.80;21.90;;;;;;5033540;28;20391;-70
2023/06/29 11:59:57;;;;;;;35.80;20.33;;;26.10;22.20;;;;;;5033397;28;20383;-70
2023/06/29 12:02:23;;;;;;;31.23;20.07;;;26.40;21.00;;;;;;5034500;28;20375;-70
2023/06/29 12:04:59;;;;;;;35.75;19.63;;;27.10;20.20;;;;;;5034592;28;20394;-71
2023/06/29 12:07:35;;;;;;;46.15;20.90;;;27.60;18.80;;;;;;5034725;28;20425;-71
2023/06/29 12:10:09;;;;;;;35.47;20.52;;;27.70;18.60;;;;;;5034316;28;20783;-70
2023/06/29 12:12:38;;;;;;;34.88;19.20;;;28.30;17.30;;;;;;5034344;28;20418;-69
2023/06/29 12:15:21;;;;;;;32.35;19.10;;;28.30;16.80;;;;;;5034704;28;20790;-71
2023/06/29 12:17:49;;;;;;;32.58;18.67;;;27.80;17.10;;;;;;5034418;28;20437;-71
2023/06/29 12:20:16;;;;;;;28.27;19.15;;;27.60;17.20;;;;;;5034354;28;20389;-70
2023/06/29 12:22:46;;;;;;;31.55;19.45;;;27.40;17.20;;;;;;5033971;28;20868;-70
2023/06/29 12:25:14;;;;;;;28.75;18.42;;;27.30;16.30;;;;;;5034082;28;20387;-72
2023/06/29 12:27:41;;;;;;;25.65;17.70;;;27.30;16.70;;;;;;5033824;28;20923;-71
2023/06/29 12:30:07;;;;;;;29.88;18.73;;;27.70;16.40;;;;;;5034032;28;20382;-71